CheckWX is a tool to help pilots better visualize weather data.  It is not intended as a substitute for an official pre-flight weather briefing.

12:25:47 UTC

OKBK TAF
Kuwait International Airport
Kuwait City, Kuwait
TAF OKBK 221045Z 2212/2318 04010KT 7000 SKC TEMPO 2218/2306 VRB03KT

Mar-22@
12:00 UTC

Mar-22 @ 12:00 UTC

Mar-23@
18:00 UTC

Mar-23 @ 18:00 UTC

TAF OKBK 221045Z 2212/2318 04010KT 7000 SKC
Wind
  • 040° at 10 KTS
Cloud Levels
  • Clear skies

Mar-22@
18:00 UTC

Mar-22 @ 18:00 UTC

Mar-23@
06:00 UTC

Mar-23 @ 06:00 UTC

TEMPO 2218/2306 VRB03KT

Temporary

Temporary Changes expected for less than half the time period

Wind
  • Variable at 3 KTS